sensor_id;sensor_type;location;lat;lon;timestamp;temperature;humidity
13980;DHT22;73871;49.900;8.594;2024-01-25T00:00:32;9.30;99.90
13980;DHT22;73871;49.900;8.594;2024-01-25T00:02:59;9.20;99.90
13980;DHT22;73871;49.900;8.594;2024-01-25T00:05:26;9.10;99.90
13980;DHT22;73871;49.900;8.594;2024-01-25T00:07:53;9.00;99.90
13980;DHT22;73871;49.900;8.594;2024-01-25T00:10:20;8.90;99.90
13980;DHT22;73871;49.900;8.594;2024-01-25T00:12:46;8.80;99.90
13980;DHT22;73871;49.900;8.594;2024-01-25T00:15:13;8.70;99.90
13980;DHT22;73871;49.900;8.594;2024-01-25T00:17:41;8.70;99.90
13980;DHT22;73871;49.900;8.594;2024-01-25T00:20:10;8.70;99.90
13980;DHT22;73871;49.900;8.594;2024-01-25T00:22:40;8.70;99.90
13980;DHT22;73871;49.900;8.594;2024-01-25T00:25:08;8.70;99.90
13980;DHT22;73871;49.900;8.594;2024-01-25T00:27:35;8.80;99.90
13980;DHT22;73871;49.900;8.594;2024-01-25T00:30:01;8.70;99.90
13980;DHT22;73871;49.900;8.594;2024-01-25T00:32:28;8.80;99.90
13980;DHT22;73871;49.900;8.594;2024-01-25T00:34:55;8.80;99.90
13980;DHT22;73871;49.900;8.594;2024-01-25T00:37:22;8.80;99.90
13980;DHT22;73871;49.900;8.594;2024-01-25T00:39:50;8.70;99.90
13980;DHT22;73871;49.900;8.594;2024-01-25T00:42:22;8.70;99.90
13980;DHT22;73871;49.900;8.594;2024-01-25T00:44:49;8.80;99.90
13980;DHT22;73871;49.900;8.594;2024-01-25T00:47:16;8.70;99.90
13980;DHT22;73871;49.900;8.594;2024-01-25T00:49:43;8.80;99.90
13980;DHT22;73871;49.900;8.594;2024-01-25T00:52:11;8.80;99.90
13980;DHT22;73871;49.900;8.594;2024-01-25T00:54:38;8.80;99.90
13980;DHT22;73871;49.900;8.594;2024-01-25T00:57:05;8.80;99.90
13980;DHT22;73871;49.900;8.594;2024-01-25T00:59:32;8.80;99.90
13980;DHT22;73871;49.900;8.594;2024-01-25T01:02:01;8.80;99.90
13980;DHT22;73871;49.900;8.594;2024-01-25T01:04:34;8.80;99.90
13980;DHT22;73871;49.900;8.594;2024-01-25T01:07:14;8.80;99.90
13980;DHT22;73871;49.900;8.594;2024-01-25T01:09:41;8.90;99.90
13980;DHT22;73871;49.900;8.594;2024-01-25T01:12:08;8.80;99.90
13980;DHT22;73871;49.900;8.594;2024-01-25T01:14:35;8.90;99.90
13980;DHT22;73871;49.900;8.594;2024-01-25T01:17:02;8.90;99.90
13980;DHT22;73871;49.900;8.594;2024-01-25T01:19:29;8.90;99.90
13980;DHT22;73871;49.900;8.594;2024-01-25T01:21:55;8.90;99.90
13980;DHT22;73871;49.900;8.594;2024-01-25T01:24:22;9.00;99.90
13980;DHT22;73871;49.900;8.594;2024-01-25T01:26:49;8.90;99.90
13980;DHT22;73871;49.900;8.594;2024-01-25T01:29:17;8.90;99.90
13980;DHT22;73871;49.900;8.594;2024-01-25T01:31:44;8.80;99.90
13980;DHT22;73871;49.900;8.594;2024-01-25T01:34:11;8.80;99.90
13980;DHT22;73871;49.900;8.594;2024-01-25T01:36:41;8.80;99.90
13980;DHT22;73871;49.900;8.594;2024-01-25T01:39:08;8.80;99.90
13980;DHT22;73871;49.900;8.594;2024-01-25T01:41:35;8.90;99.90
13980;DHT22;73871;49.900;8.594;2024-01-25T01:44:02;8.90;99.90
13980;DHT22;73871;49.900;8.594;2024-01-25T01:46:36;8.90;99.90
13980;DHT22;73871;49.900;8.594;2024-01-25T01:49:13;8.90;99.90
13980;DHT22;73871;49.900;8.594;2024-01-25T01:51:42;8.90;99.90
13980;DHT22;73871;49.900;8.594;2024-01-25T01:54:10;8.90;99.90
13980;DHT22;73871;49.900;8.594;2024-01-25T01:56:37;8.90;99.90
13980;DHT22;73871;49.900;8.594;2024-01-25T01:59:09;8.90;99.90
13980;DHT22;73871;49.900;8.594;2024-01-25T02:01:37;8.80;99.90
13980;DHT22;73871;49.900;8.594;2024-01-25T02:04:05;8.80;99.90
13980;DHT22;73871;49.900;8.594;2024-01-25T02:06:33;8.80;99.90
13980;DHT22;73871;49.900;8.594;2024-01-25T02:09:00;8.80;99.90
13980;DHT22;73871;49.900;8.594;2024-01-25T02:11:28;8.70;99.90
13980;DHT22;73871;49.900;8.594;2024-01-25T02:13:55;8.70;99.90
13980;DHT22;73871;49.900;8.594;2024-01-25T02:16:22;8.60;99.90
13980;DHT22;73871;49.900;8.594;2024-01-25T02:18:50;8.70;99.90
13980;DHT22;73871;49.900;8.594;2024-01-25T02:21:17;8.60;99.90
13980;DHT22;73871;49.900;8.594;2024-01-25T02:23:44;8.60;99.90
13980;DHT22;73871;49.900;8.594;2024-01-25T02:26:10;8.40;99.90
13980;DHT22;73871;49.900;8.594;2024-01-25T02:28:37;8.40;99.90
13980;DHT22;73871;49.900;8.594;2024-01-25T02:31:04;8.30;99.90
13980;DHT22;73871;49.900;8.594;2024-01-25T02:33:31;8.20;99.90
13980;DHT22;73871;49.900;8.594;2024-01-25T02:35:58;8.10;99.90
13980;DHT22;73871;49.900;8.594;2024-01-25T02:38:25;8.10;99.90
13980;DHT22;73871;49.900;8.594;2024-01-25T02:40:52;8.20;99.90
13980;DHT22;73871;49.900;8.594;2024-01-25T02:43:20;8.20;99.90
13980;DHT22;73871;49.900;8.594;2024-01-25T02:45:48;8.30;99.90
13980;DHT22;73871;49.900;8.594;2024-01-25T02:48:16;8.30;99.90
13980;DHT22;73871;49.900;8.594;2024-01-25T02:50:43;8.40;99.90
13980;DHT22;73871;49.900;8.594;2024-01-25T02:53:10;8.40;99.90
13980;DHT22;73871;49.900;8.594;2024-01-25T02:55:37;8.40;99.90
13980;DHT22;73871;49.900;8.594;2024-01-25T02:58:04;8.40;99.90
13980;DHT22;73871;49.900;8.594;2024-01-25T03:00:31;8.40;99.90
13980;DHT22;73871;49.900;8.594;2024-01-25T03:02:57;8.40;99.90
13980;DHT22;73871;49.900;8.594;2024-01-25T03:05:24;8.30;99.90
13980;DHT22;73871;49.900;8.594;2024-01-25T03:07:51;8.20;99.90
13980;DHT22;73871;49.900;8.594;2024-01-25T03:10:18;8.10;99.90
13980;DHT22;73871;49.900;8.594;2024-01-25T03:12:45;8.00;99.90
13980;DHT22;73871;49.900;8.594;2024-01-25T03:15:12;8.00;99.90
13980;DHT22;73871;49.900;8.594;2024-01-25T03:17:39;8.00;99.90
13980;DHT22;73871;49.900;8.594;2024-01-25T03:20:06;8.00;99.90
13980;DHT22;73871;49.900;8.594;2024-01-25T03:22:33;8.00;99.90
13980;DHT22;73871;49.900;8.594;2024-01-25T03:24:59;8.00;99.90
13980;DHT22;73871;49.900;8.594;2024-01-25T03:27:26;8.00;99.90
13980;DHT22;73871;49.900;8.594;2024-01-25T03:29:53;7.90;99.90
13980;DHT22;73871;49.900;8.594;2024-01-25T03:32:20;7.80;99.90
13980;DHT22;73871;49.900;8.594;2024-01-25T03:34:46;7.80;99.90
13980;DHT22;73871;49.900;8.594;2024-01-25T03:37:14;7.70;99.90
13980;DHT22;73871;49.900;8.594;2024-01-25T03:39:40;7.60;99.90
13980;DHT22;73871;49.900;8.594;2024-01-25T03:42:07;7.60;99.90
13980;DHT22;73871;49.900;8.594;2024-01-25T03:44:34;7.60;99.90
13980;DHT22;73871;49.900;8.594;2024-01-25T03:47:01;7.70;99.90
13980;DHT22;73871;49.900;8.594;2024-01-25T03:49:27;7.80;99.90
13980;DHT22;73871;49.900;8.594;2024-01-25T03:51:54;7.90;99.90
13980;DHT22;73871;49.900;8.594;2024-01-25T03:54:21;8.00;99.90
13980;DHT22;73871;49.900;8.594;2024-01-25T03:56:48;8.10;99.90
13980;DHT22;73871;49.900;8.594;2024-01-25T03:59:15;8.10;99.90
13980;DHT22;73871;49.900;8.594;2024-01-25T04:01:45;8.20;99.90
13980;DHT22;73871;49.900;8.594;2024-01-25T04:04:15;8.20;99.90
13980;DHT22;73871;49.900;8.594;2024-01-25T04:06:42;8.30;99.90
13980;DHT22;73871;49.900;8.594;2024-01-25T04:09:10;8.20;99.90
13980;DHT22;73871;49.900;8.594;2024-01-25T04:11:37;8.20;99.90
13980;DHT22;73871;49.900;8.594;2024-01-25T04:14:04;8.20;99.90
13980;DHT22;73871;49.900;8.594;2024-01-25T04:16:32;8.20;99.90
13980;DHT22;73871;49.900;8.594;2024-01-25T04:18:59;8.20;99.90
13980;DHT22;73871;49.900;8.594;2024-01-25T04:21:27;8.10;99.90
13980;DHT22;73871;49.900;8.594;2024-01-25T04:23:54;8.10;99.90
13980;DHT22;73871;49.900;8.594;2024-01-25T04:26:21;8.10;99.90
13980;DHT22;73871;49.900;8.594;2024-01-25T04:28:47;8.00;99.90
13980;DHT22;73871;49.900;8.594;2024-01-25T04:31:14;8.00;99.90
13980;DHT22;73871;49.900;8.594;2024-01-25T04:33:41;7.90;99.90
13980;DHT22;73871;49.900;8.594;2024-01-25T04:36:14;7.80;99.90
13980;DHT22;73871;49.900;8.594;2024-01-25T04:38:41;7.60;99.90
13980;DHT22;73871;49.900;8.594;2024-01-25T04:41:08;7.50;99.90
13980;DHT22;73871;49.900;8.594;2024-01-25T04:43:35;7.40;99.90
13980;DHT22;73871;49.900;8.594;2024-01-25T04:46:05;7.30;99.90
13980;DHT22;73871;49.900;8.594;2024-01-25T04:48:32;7.20;99.90
13980;DHT22;73871;49.900;8.594;2024-01-25T04:50:59;7.20;99.90
13980;DHT22;73871;49.900;8.594;2024-01-25T04:53:26;7.20;99.90
13980;DHT22;73871;49.900;8.594;2024-01-25T04:55:56;7.10;99.90
13980;DHT22;73871;49.900;8.594;2024-01-25T04:58:24;7.10;99.90
13980;DHT22;73871;49.900;8.594;2024-01-25T05:00:50;7.10;99.90
13980;DHT22;73871;49.900;8.594;2024-01-25T05:03:19;7.00;99.90
13980;DHT22;73871;49.900;8.594;2024-01-25T05:05:47;6.90;99.90
13980;DHT22;73871;49.900;8.594;2024-01-25T05:08:13;6.90;99.90
13980;DHT22;73871;49.900;8.594;2024-01-25T05:10:41;6.80;99.90
13980;DHT22;73871;49.900;8.594;2024-01-25T05:13:08;6.70;99.90
13980;DHT22;73871;49.900;8.594;2024-01-25T05:15:36;6.70;99.90
13980;DHT22;73871;49.900;8.594;2024-01-25T05:18:03;6.70;99.90
13980;DHT22;73871;49.900;8.594;2024-01-25T05:20:32;6.70;99.90
13980;DHT22;73871;49.900;8.594;2024-01-25T05:23:04;6.80;99.90
13980;DHT22;73871;49.900;8.594;2024-01-25T05:25:31;6.70;99.90
13980;DHT22;73871;49.900;8.594;2024-01-25T05:27:58;6.60;99.90
13980;DHT22;73871;49.900;8.594;2024-01-25T05:30:25;6.50;99.90
13980;DHT22;73871;49.900;8.594;2024-01-25T05:32:52;6.40;99.90
13980;DHT22;73871;49.900;8.594;2024-01-25T05:35:21;6.40;99.90
13980;DHT22;73871;49.900;8.594;2024-01-25T05:37:48;6.40;99.90
13980;DHT22;73871;49.900;8.594;2024-01-25T05:40:15;6.40;99.90
13980;DHT22;73871;49.900;8.594;2024-01-25T05:42:42;6.50;99.90
13980;DHT22;73871;49.900;8.594;2024-01-25T05:45:09;6.60;99.90
13980;DHT22;73871;49.900;8.594;2024-01-25T05:47:36;6.60;99.90
13980;DHT22;73871;49.900;8.594;2024-01-25T05:50:04;6.80;99.90
13980;DHT22;73871;49.900;8.594;2024-01-25T05:52:31;6.80;99.90
13980;DHT22;73871;49.900;8.594;2024-01-25T05:54:58;6.90;99.90
13980;DHT22;73871;49.900;8.594;2024-01-25T05:57:31;6.80;99.90
13980;DHT22;73871;49.900;8.594;2024-01-25T05:59:58;6.80;99.90
13980;DHT22;73871;49.900;8.594;2024-01-25T06:02:26;6.70;99.90
13980;DHT22;73871;49.900;8.594;2024-01-25T06:04:53;6.70;99.90
13980;DHT22;73871;49.900;8.594;2024-01-25T06:07:20;6.70;99.90
13980;DHT22;73871;49.900;8.594;2024-01-25T06:09:47;6.70;99.90
13980;DHT22;73871;49.900;8.594;2024-01-25T06:12:14;6.60;99.90
13980;DHT22;73871;49.900;8.594;2024-01-25T06:14:41;6.60;99.90
13980;DHT22;73871;49.900;8.594;2024-01-25T06:17:08;6.40;99.90
13980;DHT22;73871;49.900;8.594;2024-01-25T06:19:34;6.30;99.90
13980;DHT22;73871;49.900;8.594;2024-01-25T06:22:01;6.10;99.90
13980;DHT22;73871;49.900;8.594;2024-01-25T06:24:29;6.20;99.90
13980;DHT22;73871;49.900;8.594;2024-01-25T06:26:56;6.20;99.90
13980;DHT22;73871;49.900;8.594;2024-01-25T06:29:23;6.10;99.90
13980;DHT22;73871;49.900;8.594;2024-01-25T06:31:50;6.00;99.90
13980;DHT22;73871;49.900;8.594;2024-01-25T06:34:17;5.90;99.90
13980;DHT22;73871;49.900;8.594;2024-01-25T06:36:44;5.80;99.90
13980;DHT22;73871;49.900;8.594;2024-01-25T06:39:11;5.80;99.90
13980;DHT22;73871;49.900;8.594;2024-01-25T06:41:38;5.80;99.90
13980;DHT22;73871;49.900;8.594;2024-01-25T06:44:05;5.80;99.90
13980;DHT22;73871;49.900;8.594;2024-01-25T06:46:31;5.80;99.90
13980;DHT22;73871;49.900;8.594;2024-01-25T06:48:58;6.00;99.90
13980;DHT22;73871;49.900;8.594;2024-01-25T06:51:26;6.00;99.90
13980;DHT22;73871;49.900;8.594;2024-01-25T06:53:52;6.00;99.90
13980;DHT22;73871;49.900;8.594;2024-01-25T06:56:19;6.00;99.90
13980;DHT22;73871;49.900;8.594;2024-01-25T06:58:46;5.90;99.90
13980;DHT22;73871;49.900;8.594;2024-01-25T07:01:13;5.80;99.90
13980;DHT22;73871;49.900;8.594;2024-01-25T07:03:47;5.70;99.90
13980;DHT22;73871;49.900;8.594;2024-01-25T07:06:17;5.60;99.90
13980;DHT22;73871;49.900;8.594;2024-01-25T07:08:45;5.50;99.90
13980;DHT22;73871;49.900;8.594;2024-01-25T07:11:12;5.40;99.90
13980;DHT22;73871;49.900;8.594;2024-01-25T07:13:41;5.40;99.90
13980;DHT22;73871;49.900;8.594;2024-01-25T07:16:07;5.50;99.90
13980;DHT22;73871;49.900;8.594;2024-01-25T07:18:34;5.40;99.90
13980;DHT22;73871;49.900;8.594;2024-01-25T07:21:01;5.50;99.90
13980;DHT22;73871;49.900;8.594;2024-01-25T07:23:30;5.50;99.90
13980;DHT22;73871;49.900;8.594;2024-01-25T07:25:56;5.60;99.90
13980;DHT22;73871;49.900;8.594;2024-01-25T07:28:23;5.70;99.90
13980;DHT22;73871;49.900;8.594;2024-01-25T07:30:50;5.80;99.90
13980;DHT22;73871;49.900;8.594;2024-01-25T07:33:17;5.90;99.90
13980;DHT22;73871;49.900;8.594;2024-01-25T07:35:44;5.90;99.90
13980;DHT22;73871;49.900;8.594;2024-01-25T07:38:15;6.00;99.90
13980;DHT22;73871;49.900;8.594;2024-01-25T07:40:42;6.00;99.90
13980;DHT22;73871;49.900;8.594;2024-01-25T07:43:09;6.00;99.90
13980;DHT22;73871;49.900;8.594;2024-01-25T07:45:35;6.00;99.90
13980;DHT22;73871;49.900;8.594;2024-01-25T07:48:03;6.00;99.90
13980;DHT22;73871;49.900;8.594;2024-01-25T07:50:41;6.00;99.90
13980;DHT22;73871;49.900;8.594;2024-01-25T07:53:09;6.10;99.90
13980;DHT22;73871;49.900;8.594;2024-01-25T07:55:36;6.20;99.90
13980;DHT22;73871;49.900;8.594;2024-01-25T07:58:03;6.30;99.90
13980;DHT22;73871;49.900;8.594;2024-01-25T08:00:31;6.40;99.90
13980;DHT22;73871;49.900;8.594;2024-01-25T08:02:58;6.60;99.90
13980;DHT22;73871;49.900;8.594;2024-01-25T08:05:24;6.70;99.90
13980;DHT22;73871;49.900;8.594;2024-01-25T08:08:06;6.80;99.90
13980;DHT22;73871;49.900;8.594;2024-01-25T08:10:33;6.90;99.90
13980;DHT22;73871;49.900;8.594;2024-01-25T08:13:00;7.00;99.90
13980;DHT22;73871;49.900;8.594;2024-01-25T08:15:33;7.00;99.90
13980;DHT22;73871;49.900;8.594;2024-01-25T08:18:01;7.10;99.90
13980;DHT22;73871;49.900;8.594;2024-01-25T08:20:28;7.00;99.90
13980;DHT22;73871;49.900;8.594;2024-01-25T08:22:55;7.10;99.90
13980;DHT22;73871;49.900;8.594;2024-01-25T08:25:22;7.10;99.90
13980;DHT22;73871;49.900;8.594;2024-01-25T08:27:50;7.20;99.90
13980;DHT22;73871;49.900;8.594;2024-01-25T08:30:17;7.20;99.90
13980;DHT22;73871;49.900;8.594;2024-01-25T08:32:44;7.30;99.90
13980;DHT22;73871;49.900;8.594;2024-01-25T08:35:11;7.40;99.90
13980;DHT22;73871;49.900;8.594;2024-01-25T08:37:38;7.50;99.90
13980;DHT22;73871;49.900;8.594;2024-01-25T08:40:06;7.70;99.90
13980;DHT22;73871;49.900;8.594;2024-01-25T08:42:33;7.80;99.90
13980;DHT22;73871;49.900;8.594;2024-01-25T08:45:00;7.90;99.90
13980;DHT22;73871;49.900;8.594;2024-01-25T08:47:27;8.10;99.90
13980;DHT22;73871;49.900;8.594;2024-01-25T08:49:54;8.30;99.90
13980;DHT22;73871;49.900;8.594;2024-01-25T08:52:21;8.40;99.90
13980;DHT22;73871;49.900;8.594;2024-01-25T08:54:48;8.50;99.90
13980;DHT22;73871;49.900;8.594;2024-01-25T08:57:15;8.70;99.90
13980;DHT22;73871;49.900;8.594;2024-01-25T08:59:42;8.70;99.90
13980;DHT22;73871;49.900;8.594;2024-01-25T09:02:09;8.70;99.90
13980;DHT22;73871;49.900;8.594;2024-01-25T09:04:36;8.70;99.90
13980;DHT22;73871;49.900;8.594;2024-01-25T09:07:03;8.80;99.90
13980;DHT22;73871;49.900;8.594;2024-01-25T09:09:31;8.90;99.90
13980;DHT22;73871;49.900;8.594;2024-01-25T09:11:58;9.10;99.90
13980;DHT22;73871;49.900;8.594;2024-01-25T09:14:24;9.30;99.90
13980;DHT22;73871;49.900;8.594;2024-01-25T09:16:51;9.90;99.90
13980;DHT22;73871;49.900;8.594;2024-01-25T09:19:18;11.40;99.90
13980;DHT22;73871;49.900;8.594;2024-01-25T09:21:45;12.40;99.90
13980;DHT22;73871;49.900;8.594;2024-01-25T09:24:12;13.40;99.90
13980;DHT22;73871;49.900;8.594;2024-01-25T09:26:39;14.70;99.90
13980;DHT22;73871;49.900;8.594;2024-01-25T09:29:06;15.80;99.90
13980;DHT22;73871;49.900;8.594;2024-01-25T09:31:33;16.20;99.90
13980;DHT22;73871;49.900;8.594;2024-01-25T09:34:00;16.80;99.90
13980;DHT22;73871;49.900;8.594;2024-01-25T09:36:27;17.00;99.90
13980;DHT22;73871;49.900;8.594;2024-01-25T09:38:54;16.80;99.90
13980;DHT22;73871;49.900;8.594;2024-01-25T09:41:21;16.20;99.90
13980;DHT22;73871;49.900;8.594;2024-01-25T09:43:48;15.90;99.90
13980;DHT22;73871;49.900;8.594;2024-01-25T09:46:15;15.40;99.90
13980;DHT22;73871;49.900;8.594;2024-01-25T09:48:44;14.90;99.90
13980;DHT22;73871;49.900;8.594;2024-01-25T09:51:13;14.30;99.90
13980;DHT22;73871;49.900;8.594;2024-01-25T09:53:40;14.20;99.90
13980;DHT22;73871;49.900;8.594;2024-01-25T09:56:12;14.10;99.90
13980;DHT22;73871;49.900;8.594;2024-01-25T09:58:43;14.30;99.90
13980;DHT22;73871;49.900;8.594;2024-01-25T10:01:14;14.70;99.90
13980;DHT22;73871;49.900;8.594;2024-01-25T10:03:43;14.80;99.90
13980;DHT22;73871;49.900;8.594;2024-01-25T10:06:14;14.50;99.90
13980;DHT22;73871;49.900;8.594;2024-01-25T10:08:42;14.20;99.90
13980;DHT22;73871;49.900;8.594;2024-01-25T10:11:09;14.10;99.90
13980;DHT22;73871;49.900;8.594;2024-01-25T10:13:41;13.70;99.90
13980;DHT22;73871;49.900;8.594;2024-01-25T10:16:15;13.50;99.90
13980;DHT22;73871;49.900;8.594;2024-01-25T10:18:45;13.30;99.90
13980;DHT22;73871;49.900;8.594;2024-01-25T10:21:13;13.50;99.90
13980;DHT22;73871;49.900;8.594;2024-01-25T10:23:44;13.40;99.90
13980;DHT22;73871;49.900;8.594;2024-01-25T10:26:11;13.40;99.90
13980;DHT22;73871;49.900;8.594;2024-01-25T10:28:38;13.20;99.90
13980;DHT22;73871;49.900;8.594;2024-01-25T10:31:05;13.10;99.90
13980;DHT22;73871;49.900;8.594;2024-01-25T10:33:33;13.00;99.90
13980;DHT22;73871;49.900;8.594;2024-01-25T10:36:02;13.20;99.90
13980;DHT22;73871;49.900;8.594;2024-01-25T10:38:31;13.50;99.90
13980;DHT22;73871;49.900;8.594;2024-01-25T10:41:03;13.70;99.90
13980;DHT22;73871;49.900;8.594;2024-01-25T10:43:30;13.90;99.90
13980;DHT22;73871;49.900;8.594;2024-01-25T10:45:59;14.20;99.90
13980;DHT22;73871;49.900;8.594;2024-01-25T10:48:31;14.40;99.90
13980;DHT22;73871;49.900;8.594;2024-01-25T10:50:58;14.20;99.90
13980;DHT22;73871;49.900;8.594;2024-01-25T10:53:32;13.90;99.90
13980;DHT22;73871;49.900;8.594;2024-01-25T10:55:59;13.80;99.90
13980;DHT22;73871;49.900;8.594;2024-01-25T10:58:30;13.60;99.90
13980;DHT22;73871;49.900;8.594;2024-01-25T11:01:08;13.40;99.90
13980;DHT22;73871;49.900;8.594;2024-01-25T11:03:41;13.20;99.90
13980;DHT22;73871;49.900;8.594;2024-01-25T11:06:10;13.30;99.90
13980;DHT22;73871;49.900;8.594;2024-01-25T11:08:38;13.40;99.90
13980;DHT22;73871;49.900;8.594;2024-01-25T11:11:06;13.50;99.90
13980;DHT22;73871;49.900;8.594;2024-01-25T11:13:35;13.60;99.90
13980;DHT22;73871;49.900;8.594;2024-01-25T11:16:16;13.60;99.90
13980;DHT22;73871;49.900;8.594;2024-01-25T11:18:50;13.50;99.90
13980;DHT22;73871;49.900;8.594;2024-01-25T11:21:41;13.40;99.90
13980;DHT22;73871;49.900;8.594;2024-01-25T11:24:12;13.30;99.90
13980;DHT22;73871;49.900;8.594;2024-01-25T11:26:42;13.20;99.90
13980;DHT22;73871;49.900;8.594;2024-01-25T11:29:09;13.00;99.90
13980;DHT22;73871;49.900;8.594;2024-01-25T11:31:36;12.90;99.90
13980;DHT22;73871;49.900;8.594;2024-01-25T11:34:03;13.00;99.90
13980;DHT22;73871;49.900;8.594;2024-01-25T11:36:30;13.00;99.90
13980;DHT22;73871;49.900;8.594;2024-01-25T11:38:57;13.10;99.90
13980;DHT22;73871;49.900;8.594;2024-01-25T11:41:25;13.20;99.90
13980;DHT22;73871;49.900;8.594;2024-01-25T11:43:52;13.10;99.90
13980;DHT22;73871;49.900;8.594;2024-01-25T11:46:21;13.10;99.90
13980;DHT22;73871;49.900;8.594;2024-01-25T11:48:48;13.30;99.90
13980;DHT22;73871;49.900;8.594;2024-01-25T11:51:15;13.50;99.90
13980;DHT22;73871;49.900;8.594;2024-01-25T11:53:42;13.60;99.90
13980;DHT22;73871;49.900;8.594;2024-01-25T11:56:12;13.60;99.90
13980;DHT22;73871;49.900;8.594;2024-01-25T11:58:40;13.60;99.90
13980;DHT22;73871;49.900;8.594;2024-01-25T12:01:08;13.60;99.90
13980;DHT22;73871;49.900;8.594;2024-01-25T12:03:37;13.60;99.90
13980;DHT22;73871;49.900;8.594;2024-01-25T12:06:05;13.40;99.90
13980;DHT22;73871;49.900;8.594;2024-01-25T12:08:32;13.40;99.90
13980;DHT22;73871;49.900;8.594;2024-01-25T12:11:10;13.40;99.90
13980;DHT22;73871;49.900;8.594;2024-01-25T12:13:41;13.40;99.90
13980;DHT22;73871;49.900;8.594;2024-01-25T12:16:09;13.50;99.90
13980;DHT22;73871;49.900;8.594;2024-01-25T12:18:43;13.60;99.90
13980;DHT22;73871;49.900;8.594;2024-01-25T12:21:10;13.50;99.90
13980;DHT22;73871;49.900;8.594;2024-01-25T12:23:39;13.60;99.90
13980;DHT22;73871;49.900;8.594;2024-01-25T12:26:07;13.50;99.90
13980;DHT22;73871;49.900;8.594;2024-01-25T12:28:34;13.70;99.90
13980;DHT22;73871;49.900;8.594;2024-01-25T12:31:03;13.60;99.90
13980;DHT22;73871;49.900;8.594;2024-01-25T12:33:31;13.70;99.90
13980;DHT22;73871;49.900;8.594;2024-01-25T12:35:59;13.90;99.90
13980;DHT22;73871;49.900;8.594;2024-01-25T12:38:26;14.00;99.90
13980;DHT22;73871;49.900;8.594;2024-01-25T12:40:53;13.90;99.90
13980;DHT22;73871;49.900;8.594;2024-01-25T12:43:20;13.90;99.90
13980;DHT22;73871;49.900;8.594;2024-01-25T12:45:50;13.80;99.90
13980;DHT22;73871;49.900;8.594;2024-01-25T12:48:19;13.80;99.90
13980;DHT22;73871;49.900;8.594;2024-01-25T12:50:46;13.80;99.90
13980;DHT22;73871;49.900;8.594;2024-01-25T12:53:13;13.70;99.90
13980;DHT22;73871;49.900;8.594;2024-01-25T12:55:41;13.90;99.90
13980;DHT22;73871;49.900;8.594;2024-01-25T12:58:07;13.90;99.90
13980;DHT22;73871;49.900;8.594;2024-01-25T13:00:34;13.90;99.90
13980;DHT22;73871;49.900;8.594;2024-01-25T13:03:01;14.00;99.90
13980;DHT22;73871;49.900;8.594;2024-01-25T13:05:28;13.90;99.90
13980;DHT22;73871;49.900;8.594;2024-01-25T13:07:56;13.80;99.90
13980;DHT22;73871;49.900;8.594;2024-01-25T13:10:23;13.50;99.90
13980;DHT22;73871;49.900;8.594;2024-01-25T13:12:49;13.40;99.90
13980;DHT22;73871;49.900;8.594;2024-01-25T13:15:17;13.30;99.90
13980;DHT22;73871;49.900;8.594;2024-01-25T13:17:44;13.30;99.90
13980;DHT22;73871;49.900;8.594;2024-01-25T13:20:11;13.30;99.90
13980;DHT22;73871;49.900;8.594;2024-01-25T13:22:38;13.30;99.90
13980;DHT22;73871;49.900;8.594;2024-01-25T13:25:05;13.30;99.90
13980;DHT22;73871;49.900;8.594;2024-01-25T13:27:32;13.40;99.90
13980;DHT22;73871;49.900;8.594;2024-01-25T13:29:59;13.50;99.90
13980;DHT22;73871;49.900;8.594;2024-01-25T13:32:26;13.50;99.90
13980;DHT22;73871;49.900;8.594;2024-01-25T13:34:53;13.40;99.90
13980;DHT22;73871;49.900;8.594;2024-01-25T13:37:20;13.40;99.90
13980;DHT22;73871;49.900;8.594;2024-01-25T13:39:47;13.40;99.90
13980;DHT22;73871;49.900;8.594;2024-01-25T13:42:13;13.40;99.90
13980;DHT22;73871;49.900;8.594;2024-01-25T13:44:40;13.50;99.90
13980;DHT22;73871;49.900;8.594;2024-01-25T13:47:07;13.40;99.90
13980;DHT22;73871;49.900;8.594;2024-01-25T13:49:34;13.50;99.90
13980;DHT22;73871;49.900;8.594;2024-01-25T13:52:01;13.40;99.90
13980;DHT22;73871;49.900;8.594;2024-01-25T13:54:31;13.30;99.90
13980;DHT22;73871;49.900;8.594;2024-01-25T13:56:58;13.10;99.90
13980;DHT22;73871;49.900;8.594;2024-01-25T13:59:25;12.90;99.90
13980;DHT22;73871;49.900;8.594;2024-01-25T14:01:52;12.80;99.90
13980;DHT22;73871;49.900;8.594;2024-01-25T14:04:19;12.70;99.90
13980;DHT22;73871;49.900;8.594;2024-01-25T14:06:46;12.50;99.90
13980;DHT22;73871;49.900;8.594;2024-01-25T14:09:13;12.50;99.90
13980;DHT22;73871;49.900;8.594;2024-01-25T14:11:40;12.50;99.90
13980;DHT22;73871;49.900;8.594;2024-01-25T14:14:07;12.40;99.90
13980;DHT22;73871;49.900;8.594;2024-01-25T14:16:35;12.40;99.90
13980;DHT22;73871;49.900;8.594;2024-01-25T14:19:02;12.50;99.90
13980;DHT22;73871;49.900;8.594;2024-01-25T14:21:31;12.40;99.90
13980;DHT22;73871;49.900;8.594;2024-01-25T14:23:58;12.40;99.90
13980;DHT22;73871;49.900;8.594;2024-01-25T14:26:25;12.40;99.90
13980;DHT22;73871;49.900;8.594;2024-01-25T14:28:52;12.40;99.90
13980;DHT22;73871;49.900;8.594;2024-01-25T14:31:19;12.40;99.90
13980;DHT22;73871;49.900;8.594;2024-01-25T14:33:45;12.40;99.90
13980;DHT22;73871;49.900;8.594;2024-01-25T14:36:12;12.20;99.90
13980;DHT22;73871;49.900;8.594;2024-01-25T14:38:41;12.00;99.90
13980;DHT22;73871;49.900;8.594;2024-01-25T14:41:09;12.00;99.90
13980;DHT22;73871;49.900;8.594;2024-01-25T14:43:37;11.90;99.90
13980;DHT22;73871;49.900;8.594;2024-01-25T14:46:06;11.80;99.90
13980;DHT22;73871;49.900;8.594;2024-01-25T14:48:33;11.80;99.90
13980;DHT22;73871;49.900;8.594;2024-01-25T14:51:00;11.70;99.90
13980;DHT22;73871;49.900;8.594;2024-01-25T14:53:27;11.70;99.90
13980;DHT22;73871;49.900;8.594;2024-01-25T14:55:54;11.60;99.90
13980;DHT22;73871;49.900;8.594;2024-01-25T14:58:21;11.50;99.90
13980;DHT22;73871;49.900;8.594;2024-01-25T15:00:51;11.40;99.90
13980;DHT22;73871;49.900;8.594;2024-01-25T15:03:19;11.30;99.90
13980;DHT22;73871;49.900;8.594;2024-01-25T15:05:46;11.30;99.90
13980;DHT22;73871;49.900;8.594;2024-01-25T15:08:13;11.30;99.90
13980;DHT22;73871;49.900;8.594;2024-01-25T15:10:39;11.20;99.90
13980;DHT22;73871;49.900;8.594;2024-01-25T15:13:06;11.20;99.90
13980;DHT22;73871;49.900;8.594;2024-01-25T15:15:33;11.20;99.90
13980;DHT22;73871;49.900;8.594;2024-01-25T15:18:00;11.10;99.90
13980;DHT22;73871;49.900;8.594;2024-01-25T15:20:27;11.10;99.90
13980;DHT22;73871;49.900;8.594;2024-01-25T15:22:54;11.00;99.90
13980;DHT22;73871;49.900;8.594;2024-01-25T15:25:24;11.00;99.90
13980;DHT22;73871;49.900;8.594;2024-01-25T15:27:51;11.00;99.90
13980;DHT22;73871;49.900;8.594;2024-01-25T15:30:18;10.90;99.90
13980;DHT22;73871;49.900;8.594;2024-01-25T15:32:45;10.90;99.90
13980;DHT22;73871;49.900;8.594;2024-01-25T15:35:15;10.80;99.90
13980;DHT22;73871;49.900;8.594;2024-01-25T15:37:41;10.70;99.90
13980;DHT22;73871;49.900;8.594;2024-01-25T15:40:09;10.80;99.90
13980;DHT22;73871;49.900;8.594;2024-01-25T15:42:42;10.80;99.90